sensor_id;sensor_type;location;lat;lon;timestamp;P1;durP1;ratioP1;P2;durP2;ratioP2
30287;SDS011;17103;48.316;11.558;2024-03-23T00:53:54;3.53;;;1.20;;
30287;SDS011;17103;48.316;11.558;2024-03-23T00:56:20;1.92;;;1.40;;
30287;SDS011;17103;48.316;11.558;2024-03-23T00:58:45;2.58;;;1.40;;
30287;SDS011;17103;48.316;11.558;2024-03-23T01:01:11;1.65;;;1.15;;
30287;SDS011;17103;48.316;11.558;2024-03-23T01:03:36;2.30;;;1.40;;
30287;SDS011;17103;48.316;11.558;2024-03-23T01:06:02;2.08;;;1.25;;
30287;SDS011;17103;48.316;11.558;2024-03-23T01:08:31;2.78;;;1.42;;
30287;SDS011;17103;48.316;11.558;2024-03-23T01:10:57;2.08;;;1.35;;
30287;SDS011;17103;48.316;11.558;2024-03-23T01:13:28;1.88;;;1.30;;
30287;SDS011;17103;48.316;11.558;2024-03-23T01:15:55;2.63;;;1.30;;
30287;SDS011;17103;48.316;11.558;2024-03-23T01:18:23;2.50;;;1.40;;
30287;SDS011;17103;48.316;11.558;2024-03-23T01:20:49;3.75;;;1.40;;
30287;SDS011;17103;48.316;11.558;2024-03-23T01:23:16;1.95;;;1.20;;
30287;SDS011;17103;48.316;11.558;2024-03-23T01:25:43;2.63;;;1.55;;
30287;SDS011;17103;48.316;11.558;2024-03-23T01:28:09;2.47;;;1.48;;
30287;SDS011;17103;48.316;11.558;2024-03-23T01:30:35;2.22;;;1.50;;
30287;SDS011;17103;48.316;11.558;2024-03-23T01:33:01;2.00;;;1.40;;
30287;SDS011;17103;48.316;11.558;2024-03-23T01:35:28;2.30;;;1.05;;
30287;SDS011;17103;48.316;11.558;2024-03-23T01:37:54;2.15;;;1.30;;
30287;SDS011;17103;48.316;11.558;2024-03-23T01:40:21;3.33;;;1.70;;
30287;SDS011;17103;48.316;11.558;2024-03-23T01:43:02;2.63;;;1.30;;
30287;SDS011;17103;48.316;11.558;2024-03-23T01:47:56;1.75;;;1.30;;
30287;SDS011;17103;48.316;11.558;2024-03-23T01:50:22;4.43;;;1.60;;
30287;SDS011;17103;48.316;11.558;2024-03-23T01:52:48;2.58;;;1.48;;
30287;SDS011;17103;48.316;11.558;2024-03-23T01:55:15;2.00;;;1.30;;
30287;SDS011;17103;48.316;11.558;2024-03-23T01:57:41;1.65;;;1.42;;
30287;SDS011;17103;48.316;11.558;2024-03-23T02:00:07;3.42;;;1.50;;
30287;SDS011;17103;48.316;11.558;2024-03-23T02:02:34;2.03;;;1.77;;
30287;SDS011;17103;48.316;11.558;2024-03-23T02:05:00;2.30;;;1.80;;
30287;SDS011;17103;48.316;11.558;2024-03-23T02:07:26;2.70;;;1.60;;
30287;SDS011;17103;48.316;11.558;2024-03-23T02:09:52;3.22;;;1.58;;
30287;SDS011;17103;48.316;11.558;2024-03-23T02:15:46;3.72;;;1.70;;
30287;SDS011;17103;48.316;11.558;2024-03-23T02:18:11;3.33;;;1.73;;
30287;SDS011;17103;48.316;11.558;2024-03-23T02:20:37;3.17;;;1.50;;
30287;SDS011;17103;48.316;11.558;2024-03-23T02:23:04;2.17;;;1.58;;
30287;SDS011;17103;48.316;11.558;2024-03-23T02:25:33;4.20;;;1.55;;
30287;SDS011;17103;48.316;11.558;2024-03-23T02:27:59;3.10;;;1.88;;
30287;SDS011;17103;48.316;11.558;2024-03-23T02:30:25;3.38;;;1.98;;
30287;SDS011;17103;48.316;11.558;2024-03-23T02:32:51;3.72;;;1.70;;
30287;SDS011;17103;48.316;11.558;2024-03-23T02:35:17;2.38;;;1.50;;
30287;SDS011;17103;48.316;11.558;2024-03-23T02:37:43;3.63;;;1.50;;
30287;SDS011;17103;48.316;11.558;2024-03-23T02:40:09;2.00;;;1.27;;
30287;SDS011;17103;48.316;11.558;2024-03-23T02:42:34;1.73;;;1.30;;
30287;SDS011;17103;48.316;11.558;2024-03-23T02:45:00;1.85;;;1.45;;
30287;SDS011;17103;48.316;11.558;2024-03-23T02:47:25;2.00;;;1.27;;
30287;SDS011;17103;48.316;11.558;2024-03-23T02:49:51;3.25;;;1.60;;
30287;SDS011;17103;48.316;11.558;2024-03-23T02:52:20;3.10;;;1.20;;
30287;SDS011;17103;48.316;11.558;2024-03-23T02:54:46;2.05;;;1.10;;
30287;SDS011;17103;48.316;11.558;2024-03-23T02:57:11;2.20;;;1.38;;
30287;SDS011;17103;48.316;11.558;2024-03-23T02:59:37;1.98;;;1.15;;
30287;SDS011;17103;48.316;11.558;2024-03-23T03:02:02;2.53;;;1.27;;
30287;SDS011;17103;48.316;11.558;2024-03-23T03:04:31;2.05;;;1.38;;
30287;SDS011;17103;48.316;11.558;2024-03-23T03:07:01;1.48;;;0.95;;
30287;SDS011;17103;48.316;11.558;2024-03-23T03:09:26;3.00;;;1.30;;
30287;SDS011;17103;48.316;11.558;2024-03-23T03:11:52;4.50;;;1.45;;
30287;SDS011;17103;48.316;11.558;2024-03-23T03:14:17;2.60;;;1.98;;
30287;SDS011;17103;48.316;11.558;2024-03-23T03:16:44;1.95;;;1.20;;
30287;SDS011;17103;48.316;11.558;2024-03-23T03:19:10;2.22;;;1.02;;
30287;SDS011;17103;48.316;11.558;2024-03-23T03:21:36;3.28;;;1.10;;
30287;SDS011;17103;48.316;11.558;2024-03-23T03:24:02;3.40;;;2.00;;
30287;SDS011;17103;48.316;11.558;2024-03-23T03:26:28;2.30;;;1.10;;
30287;SDS011;17103;48.316;11.558;2024-03-23T03:28:53;1.92;;;1.20;;
30287;SDS011;17103;48.316;11.558;2024-03-23T03:31:19;2.60;;;1.20;;
30287;SDS011;17103;48.316;11.558;2024-03-23T03:33:46;1.42;;;1.15;;
30287;SDS011;17103;48.316;11.558;2024-03-23T03:36:11;4.43;;;1.77;;
30287;SDS011;17103;48.316;11.558;2024-03-23T03:38:37;2.35;;;1.10;;
30287;SDS011;17103;48.316;11.558;2024-03-23T03:41:06;2.53;;;1.10;;
30287;SDS011;17103;48.316;11.558;2024-03-23T03:43:32;2.67;;;1.27;;
30287;SDS011;17103;48.316;11.558;2024-03-23T03:45:59;2.70;;;1.25;;
30287;SDS011;17103;48.316;11.558;2024-03-23T03:48:25;2.03;;;1.02;;
30287;SDS011;17103;48.316;11.558;2024-03-23T03:50:51;1.98;;;1.00;;
30287;SDS011;17103;48.316;11.558;2024-03-23T03:53:17;2.00;;;1.13;;
30287;SDS011;17103;48.316;11.558;2024-03-23T03:55:43;1.92;;;1.00;;
30287;SDS011;17103;48.316;11.558;2024-03-23T03:58:09;2.20;;;1.10;;
30287;SDS011;17103;48.316;11.558;2024-03-23T04:00:35;2.97;;;1.00;;
30287;SDS011;17103;48.316;11.558;2024-03-23T04:03:01;1.67;;;1.00;;
30287;SDS011;17103;48.316;11.558;2024-03-23T04:05:28;2.15;;;1.27;;
30287;SDS011;17103;48.316;11.558;2024-03-23T04:07:54;2.47;;;1.05;;
30287;SDS011;17103;48.316;11.558;2024-03-23T04:10:20;3.03;;;1.95;;
30287;SDS011;17103;48.316;11.558;2024-03-23T04:12:46;3.60;;;1.45;;
30287;SDS011;17103;48.316;11.558;2024-03-23T04:15:12;1.73;;;1.20;;
30287;SDS011;17103;48.316;11.558;2024-03-23T04:17:38;1.88;;;1.13;;
30287;SDS011;17103;48.316;11.558;2024-03-23T04:20:04;2.20;;;1.38;;
30287;SDS011;17103;48.316;11.558;2024-03-23T04:22:34;1.30;;;0.98;;
30287;SDS011;17103;48.316;11.558;2024-03-23T04:25:00;9.68;;;2.33;;
30287;SDS011;17103;48.316;11.558;2024-03-23T04:27:31;1.75;;;1.13;;
30287;SDS011;17103;48.316;11.558;2024-03-23T04:30:01;1.70;;;1.08;;
30287;SDS011;17103;48.316;11.558;2024-03-23T04:32:27;2.60;;;1.20;;
30287;SDS011;17103;48.316;11.558;2024-03-23T04:34:53;3.85;;;1.23;;
30287;SDS011;17103;48.316;11.558;2024-03-23T04:37:19;2.88;;;1.60;;
30287;SDS011;17103;48.316;11.558;2024-03-23T04:39:46;5.28;;;2.72;;
30287;SDS011;17103;48.316;11.558;2024-03-23T04:42:12;5.30;;;3.00;;
30287;SDS011;17103;48.316;11.558;2024-03-23T04:44:39;2.38;;;1.70;;
30287;SDS011;17103;48.316;11.558;2024-03-23T04:47:05;2.88;;;1.20;;
30287;SDS011;17103;48.316;11.558;2024-03-23T04:49:30;1.88;;;1.02;;
30287;SDS011;17103;48.316;11.558;2024-03-23T04:51:56;3.78;;;1.05;;
30287;SDS011;17103;48.316;11.558;2024-03-23T04:54:22;1.17;;;0.80;;
30287;SDS011;17103;48.316;11.558;2024-03-23T04:56:47;2.05;;;0.80;;
30287;SDS011;17103;48.316;11.558;2024-03-23T04:59:13;2.58;;;1.13;;
30287;SDS011;17103;48.316;11.558;2024-03-23T05:01:39;1.00;;;0.80;;
30287;SDS011;17103;48.316;11.558;2024-03-23T05:04:07;1.73;;;1.05;;
30287;SDS011;17103;48.316;11.558;2024-03-23T05:06:33;1.60;;;0.80;;
30287;SDS011;17103;48.316;11.558;2024-03-23T05:08:59;1.52;;;0.90;;
30287;SDS011;17103;48.316;11.558;2024-03-23T05:11:26;1.60;;;0.80;;
30287;SDS011;17103;48.316;11.558;2024-03-23T05:13:52;1.83;;;0.90;;
30287;SDS011;17103;48.316;11.558;2024-03-23T05:16:18;1.83;;;0.85;;
30287;SDS011;17103;48.316;11.558;2024-03-23T05:18:44;1.83;;;0.85;;
30287;SDS011;17103;48.316;11.558;2024-03-23T05:21:09;1.13;;;0.70;;
30287;SDS011;17103;48.316;11.558;2024-03-23T05:23:36;2.78;;;1.10;;
30287;SDS011;17103;48.316;11.558;2024-03-23T05:26:05;2.30;;;0.90;;
30287;SDS011;17103;48.316;11.558;2024-03-23T05:28:30;3.42;;;1.00;;
30287;SDS011;17103;48.316;11.558;2024-03-23T05:30:56;1.95;;;0.90;;
30287;SDS011;17103;48.316;11.558;2024-03-23T05:33:22;3.30;;;0.80;;
30287;SDS011;17103;48.316;11.558;2024-03-23T05:35:56;2.85;;;1.50;;
30287;SDS011;17103;48.316;11.558;2024-03-23T05:38:26;2.90;;;1.00;;
30287;SDS011;17103;48.316;11.558;2024-03-23T05:43:21;1.48;;;0.85;;
30287;SDS011;17103;48.316;11.558;2024-03-23T05:45:56;2.92;;;0.98;;
30287;SDS011;17103;48.316;11.558;2024-03-23T05:48:23;1.80;;;0.80;;
30287;SDS011;17103;48.316;11.558;2024-03-23T05:50:52;1.55;;;0.95;;
30287;SDS011;17103;48.316;11.558;2024-03-23T05:53:18;1.13;;;0.80;;
30287;SDS011;17103;48.316;11.558;2024-03-23T05:55:48;2.70;;;0.70;;
30287;SDS011;17103;48.316;11.558;2024-03-23T05:58:15;1.52;;;1.00;;
30287;SDS011;17103;48.316;11.558;2024-03-23T06:00:43;2.05;;;1.02;;
30287;SDS011;17103;48.316;11.558;2024-03-23T06:03:09;1.25;;;0.60;;
30287;SDS011;17103;48.316;11.558;2024-03-23T06:05:35;1.25;;;0.70;;
30287;SDS011;17103;48.316;11.558;2024-03-23T06:08:04;2.42;;;1.10;;
30287;SDS011;17103;48.316;11.558;2024-03-23T06:10:30;2.30;;;1.33;;
30287;SDS011;17103;48.316;11.558;2024-03-23T06:12:56;3.03;;;1.17;;
30287;SDS011;17103;48.316;11.558;2024-03-23T06:15:23;1.58;;;0.75;;
30287;SDS011;17103;48.316;11.558;2024-03-23T06:17:49;3.35;;;0.90;;
30287;SDS011;17103;48.316;11.558;2024-03-23T06:20:15;2.40;;;0.80;;
30287;SDS011;17103;48.316;11.558;2024-03-23T06:22:41;5.57;;;0.93;;
30287;SDS011;17103;48.316;11.558;2024-03-23T06:25:07;1.45;;;0.98;;
30287;SDS011;17103;48.316;11.558;2024-03-23T06:27:33;1.23;;;0.73;;
30287;SDS011;17103;48.316;11.558;2024-03-23T06:29:59;2.25;;;0.70;;
30287;SDS011;17103;48.316;11.558;2024-03-23T06:32:27;3.00;;;0.68;;
30287;SDS011;17103;48.316;11.558;2024-03-23T06:34:54;2.08;;;0.80;;
30287;SDS011;17103;48.316;11.558;2024-03-23T06:37:20;4.63;;;0.95;;
30287;SDS011;17103;48.316;11.558;2024-03-23T06:39:46;2.20;;;0.77;;
30287;SDS011;17103;48.316;11.558;2024-03-23T06:42:13;3.25;;;1.00;;
30287;SDS011;17103;48.316;11.558;2024-03-23T06:44:38;1.20;;;0.82;;
30287;SDS011;17103;48.316;11.558;2024-03-23T06:47:05;2.92;;;1.85;;
30287;SDS011;17103;48.316;11.558;2024-03-23T06:49:31;3.53;;;0.73;;
30287;SDS011;17103;48.316;11.558;2024-03-23T06:51:56;2.47;;;0.93;;
30287;SDS011;17103;48.316;11.558;2024-03-23T06:54:24;1.13;;;0.70;;
30287;SDS011;17103;48.316;11.558;2024-03-23T06:56:49;1.67;;;0.90;;
30287;SDS011;17103;48.316;11.558;2024-03-23T06:59:15;1.67;;;0.60;;
30287;SDS011;17103;48.316;11.558;2024-03-23T07:01:41;3.63;;;0.90;;
30287;SDS011;17103;48.316;11.558;2024-03-23T07:04:07;1.05;;;0.70;;
30287;SDS011;17103;48.316;11.558;2024-03-23T07:06:33;2.55;;;1.48;;
30287;SDS011;17103;48.316;11.558;2024-03-23T07:08:58;2.33;;;0.85;;
30287;SDS011;17103;48.316;11.558;2024-03-23T07:11:24;1.40;;;0.75;;
30287;SDS011;17103;48.316;11.558;2024-03-23T07:13:51;2.08;;;0.75;;
30287;SDS011;17103;48.316;11.558;2024-03-23T07:16:22;2.80;;;1.23;;
30287;SDS011;17103;48.316;11.558;2024-03-23T07:18:49;3.33;;;0.90;;
30287;SDS011;17103;48.316;11.558;2024-03-23T07:21:15;2.28;;;0.73;;
30287;SDS011;17103;48.316;11.558;2024-03-23T07:23:44;2.55;;;0.80;;
30287;SDS011;17103;48.316;11.558;2024-03-23T07:26:10;2.20;;;1.08;;
30287;SDS011;17103;48.316;11.558;2024-03-23T07:28:37;5.60;;;1.20;;
30287;SDS011;17103;48.316;11.558;2024-03-23T07:31:09;3.45;;;2.05;;
30287;SDS011;17103;48.316;11.558;2024-03-23T07:33:36;6.05;;;3.97;;
30287;SDS011;17103;48.316;11.558;2024-03-23T07:36:06;7.10;;;5.30;;
30287;SDS011;17103;48.316;11.558;2024-03-23T07:38:32;7.05;;;1.85;;
30287;SDS011;17103;48.316;11.558;2024-03-23T07:41:11;3.40;;;1.60;;
30287;SDS011;17103;48.316;11.558;2024-03-23T07:43:39;3.10;;;1.83;;
30287;SDS011;17103;48.316;11.558;2024-03-23T07:46:05;4.05;;;1.70;;
30287;SDS011;17103;48.316;11.558;2024-03-23T07:48:32;3.25;;;1.55;;
30287;SDS011;17103;48.316;11.558;2024-03-23T07:51:05;3.00;;;1.40;;
30287;SDS011;17103;48.316;11.558;2024-03-23T07:53:32;2.67;;;1.50;;
30287;SDS011;17103;48.316;11.558;2024-03-23T07:56:07;3.92;;;1.50;;
30287;SDS011;17103;48.316;11.558;2024-03-23T07:58:36;4.47;;;2.00;;
30287;SDS011;17103;48.316;11.558;2024-03-23T08:01:12;2.85;;;1.38;;
30287;SDS011;17103;48.316;11.558;2024-03-23T08:03:43;3.55;;;1.70;;
30287;SDS011;17103;48.316;11.558;2024-03-23T08:06:10;4.15;;;3.20;;
30287;SDS011;17103;48.316;11.558;2024-03-23T08:08:39;2.88;;;2.00;;
30287;SDS011;17103;48.316;11.558;2024-03-23T08:11:08;4.38;;;2.65;;
30287;SDS011;17103;48.316;11.558;2024-03-23T08:13:34;4.20;;;3.00;;
30287;SDS011;17103;48.316;11.558;2024-03-23T08:16:01;6.03;;;3.38;;
30287;SDS011;17103;48.316;11.558;2024-03-23T08:18:28;5.60;;;2.65;;
30287;SDS011;17103;48.316;11.558;2024-03-23T08:21:04;6.78;;;3.03;;
30287;SDS011;17103;48.316;11.558;2024-03-23T08:23:31;5.60;;;2.40;;
30287;SDS011;17103;48.316;11.558;2024-03-23T08:26:02;3.45;;;3.05;;
30287;SDS011;17103;48.316;11.558;2024-03-23T08:28:31;4.78;;;2.45;;
30287;SDS011;17103;48.316;11.558;2024-03-23T08:31:00;3.83;;;2.70;;
30287;SDS011;17103;48.316;11.558;2024-03-23T08:33:27;4.32;;;2.70;;
30287;SDS011;17103;48.316;11.558;2024-03-23T08:36:00;3.10;;;2.42;;
30287;SDS011;17103;48.316;11.558;2024-03-23T08:38:32;3.45;;;2.33;;
30287;SDS011;17103;48.316;11.558;2024-03-23T08:41:20;4.13;;;2.78;;
30287;SDS011;17103;48.316;11.558;2024-03-23T08:43:45;4.22;;;2.30;;
30287;SDS011;17103;48.316;11.558;2024-03-23T08:46:15;2.67;;;1.70;;
30287;SDS011;17103;48.316;11.558;2024-03-23T08:48:42;4.78;;;3.33;;
30287;SDS011;17103;48.316;11.558;2024-03-23T08:51:10;3.58;;;2.47;;
30287;SDS011;17103;48.316;11.558;2024-03-23T08:53:38;3.75;;;1.92;;
30287;SDS011;17103;48.316;11.558;2024-03-23T08:56:05;2.85;;;1.95;;
30287;SDS011;17103;48.316;11.558;2024-03-23T08:58:31;4.50;;;3.05;;
30287;SDS011;17103;48.316;11.558;2024-03-23T09:03:35;4.05;;;2.40;;
30287;SDS011;17103;48.316;11.558;2024-03-23T09:06:02;4.88;;;3.20;;
30287;SDS011;17103;48.316;11.558;2024-03-23T09:08:33;4.18;;;2.60;;
30287;SDS011;17103;48.316;11.558;2024-03-23T09:11:07;3.38;;;2.13;;
30287;SDS011;17103;48.316;11.558;2024-03-23T09:13:35;4.70;;;2.70;;
30287;SDS011;17103;48.316;11.558;2024-03-23T09:16:01;3.83;;;2.67;;
30287;SDS011;17103;48.316;11.558;2024-03-23T09:18:31;3.30;;;2.45;;
30287;SDS011;17103;48.316;11.558;2024-03-23T09:20:57;4.85;;;2.33;;
30287;SDS011;17103;48.316;11.558;2024-03-23T09:23:23;3.50;;;2.55;;
30287;SDS011;17103;48.316;11.558;2024-03-23T09:25:49;2.88;;;2.22;;
30287;SDS011;17103;48.316;11.558;2024-03-23T09:28:15;3.60;;;2.25;;
30287;SDS011;17103;48.316;11.558;2024-03-23T09:30:41;2.88;;;1.98;;
30287;SDS011;17103;48.316;11.558;2024-03-23T09:33:09;4.35;;;2.33;;
30287;SDS011;17103;48.316;11.558;2024-03-23T09:35:36;3.03;;;1.77;;
30287;SDS011;17103;48.316;11.558;2024-03-23T09:38:06;4.28;;;1.58;;
30287;SDS011;17103;48.316;11.558;2024-03-23T09:40:39;1.98;;;1.20;;
30287;SDS011;17103;48.316;11.558;2024-03-23T09:43:06;1.40;;;0.90;;
30287;SDS011;17103;48.316;11.558;2024-03-23T09:45:32;1.65;;;1.05;;
30287;SDS011;17103;48.316;11.558;2024-03-23T09:48:02;1.30;;;0.70;;
30287;SDS011;17103;48.316;11.558;2024-03-23T09:50:28;1.30;;;0.75;;
30287;SDS011;17103;48.316;11.558;2024-03-23T09:52:54;2.67;;;0.80;;
30287;SDS011;17103;48.316;11.558;2024-03-23T09:55:19;1.67;;;0.88;;
30287;SDS011;17103;48.316;11.558;2024-03-23T09:57:46;0.65;;;0.43;;
30287;SDS011;17103;48.316;11.558;2024-03-23T10:00:12;0.40;;;0.28;;
30287;SDS011;17103;48.316;11.558;2024-03-23T10:02:38;0.52;;;0.20;;
30287;SDS011;17103;48.316;11.558;2024-03-23T10:05:04;1.70;;;0.52;;
30287;SDS011;17103;48.316;11.558;2024-03-23T10:07:44;0.40;;;0.25;;
30287;SDS011;17103;48.316;11.558;2024-03-23T10:10:10;1.20;;;0.20;;
30287;SDS011;17103;48.316;11.558;2024-03-23T10:12:39;0.30;;;0.30;;
30287;SDS011;17103;48.316;11.558;2024-03-23T10:15:19;0.63;;;0.40;;
30287;SDS011;17103;48.316;11.558;2024-03-23T10:20:11;2.40;;;0.75;;
30287;SDS011;17103;48.316;11.558;2024-03-23T10:22:37;0.55;;;0.20;;
30287;SDS011;17103;48.316;11.558;2024-03-23T10:25:07;0.43;;;0.20;;
30287;SDS011;17103;48.316;11.558;2024-03-23T10:27:34;0.90;;;0.50;;
30287;SDS011;17103;48.316;11.558;2024-03-23T10:30:09;1.75;;;0.30;;
30287;SDS011;17103;48.316;11.558;2024-03-23T10:32:37;1.73;;;0.22;;
30287;SDS011;17103;48.316;11.558;2024-03-23T10:37:44;1.35;;;0.20;;
30287;SDS011;17103;48.316;11.558;2024-03-23T10:40:11;1.10;;;0.20;;
30287;SDS011;17103;48.316;11.558;2024-03-23T10:42:38;0.75;;;0.30;;
30287;SDS011;17103;48.316;11.558;2024-03-23T10:45:08;5.22;;;0.28;;
30287;SDS011;17103;48.316;11.558;2024-03-23T10:47:35;0.55;;;0.30;;
30287;SDS011;17103;48.316;11.558;2024-03-23T10:50:01;0.43;;;0.10;;
30287;SDS011;17103;48.316;11.558;2024-03-23T10:52:28;0.30;;;0.10;;
30287;SDS011;17103;48.316;11.558;2024-03-23T10:54:54;0.40;;;0.30;;
30287;SDS011;17103;48.316;11.558;2024-03-23T10:57:23;0.50;;;0.30;;
30287;SDS011;17103;48.316;11.558;2024-03-23T10:59:57;0.38;;;0.20;;
30287;SDS011;17103;48.316;11.558;2024-03-23T11:02:23;1.10;;;0.20;;
30287;SDS011;17103;48.316;11.558;2024-03-23T11:04:52;0.35;;;0.20;;
30287;SDS011;17103;48.316;11.558;2024-03-23T11:09:56;0.25;;;0.10;;
30287;SDS011;17103;48.316;11.558;2024-03-23T11:18:09;0.43;;;0.20;;
30287;SDS011;17103;48.316;11.558;2024-03-23T11:20:37;0.45;;;0.15;;
30287;SDS011;17103;48.316;11.558;2024-03-23T11:23:03;1.27;;;0.30;;
30287;SDS011;17103;48.316;11.558;2024-03-23T11:25:29;0.77;;;0.30;;
30287;SDS011;17103;48.316;11.558;2024-03-23T11:27:56;0.93;;;0.50;;
30287;SDS011;17103;48.316;11.558;2024-03-23T11:30:23;0.93;;;0.55;;
30287;SDS011;17103;48.316;11.558;2024-03-23T11:32:59;0.70;;;0.30;;
30287;SDS011;17103;48.316;11.558;2024-03-23T11:35:48;2.60;;;0.57;;
30287;SDS011;17103;48.316;11.558;2024-03-23T11:38:17;0.60;;;0.40;;
30287;SDS011;17103;48.316;11.558;2024-03-23T11:40:47;1.23;;;0.45;;
30287;SDS011;17103;48.316;11.558;2024-03-23T11:43:15;0.40;;;0.22;;
30287;SDS011;17103;48.316;11.558;2024-03-23T11:46:18;2.08;;;0.70;;
30287;SDS011;17103;48.316;11.558;2024-03-23T11:48:35;1.20;;;0.88;;
30287;SDS011;17103;48.316;11.558;2024-03-23T11:51:01;2.03;;;0.75;;
30287;SDS011;17103;48.316;11.558;2024-03-23T11:53:28;1.30;;;0.68;;
30287;SDS011;17103;48.316;11.558;2024-03-23T11:58:24;1.23;;;0.60;;
30287;SDS011;17103;48.316;11.558;2024-03-23T12:00:52;2.15;;;0.50;;
30287;SDS011;17103;48.316;11.558;2024-03-23T12:03:21;2.17;;;0.95;;
30287;SDS011;17103;48.316;11.558;2024-03-23T12:05:50;1.55;;;0.60;;
30287;SDS011;17103;48.316;11.558;2024-03-23T12:08:19;2.65;;;0.50;;
30287;SDS011;17103;48.316;11.558;2024-03-23T12:10:48;3.10;;;1.42;;
30287;SDS011;17103;48.316;11.558;2024-03-23T12:13:18;6.15;;;0.85;;
30287;SDS011;17103;48.316;11.558;2024-03-23T12:15:46;3.38;;;0.70;;
30287;SDS011;17103;48.316;11.558;2024-03-23T12:18:12;1.52;;;0.75;;
30287;SDS011;17103;48.316;11.558;2024-03-23T12:20:38;2.45;;;0.60;;
30287;SDS011;17103;48.316;11.558;2024-03-23T12:23:08;3.40;;;0.95;;
30287;SDS011;17103;48.316;11.558;2024-03-23T12:25:36;2.50;;;0.70;;
30287;SDS011;17103;48.316;11.558;2024-03-23T12:28:06;1.35;;;0.52;;
30287;SDS011;17103;48.316;11.558;2024-03-23T12:30:34;3.15;;;0.98;;
30287;SDS011;17103;48.316;11.558;2024-03-23T12:33:03;1.80;;;0.70;;
30287;SDS011;17103;48.316;11.558;2024-03-23T12:35:29;3.83;;;1.35;;
30287;SDS011;17103;48.316;11.558;2024-03-23T12:37:55;4.47;;;1.20;;
30287;SDS011;17103;48.316;11.558;2024-03-23T12:40:21;2.25;;;0.80;;
30287;SDS011;17103;48.316;11.558;2024-03-23T12:42:47;3.97;;;1.10;;
30287;SDS011;17103;48.316;11.558;2024-03-23T12:45:13;3.22;;;1.05;;
30287;SDS011;17103;48.316;11.558;2024-03-23T12:47:39;3.15;;;1.00;;
30287;SDS011;17103;48.316;11.558;2024-03-23T12:50:05;5.60;;;2.05;;
30287;SDS011;17103;48.316;11.558;2024-03-23T12:52:34;3.95;;;0.77;;
30287;SDS011;17103;48.316;11.558;2024-03-23T12:55:01;3.10;;;0.88;;
30287;SDS011;17103;48.316;11.558;2024-03-23T12:57:28;2.35;;;1.00;;
30287;SDS011;17103;48.316;11.558;2024-03-23T12:59:54;1.83;;;0.77;;
30287;SDS011;17103;48.316;11.558;2024-03-23T13:02:20;5.78;;;1.50;;
30287;SDS011;17103;48.316;11.558;2024-03-23T13:04:49;4.10;;;1.10;;
30287;SDS011;17103;48.316;11.558;2024-03-23T13:07:16;3.30;;;1.63;;
30287;SDS011;17103;48.316;11.558;2024-03-23T13:09:43;3.95;;;1.02;;
30287;SDS011;17103;48.316;11.558;2024-03-23T13:12:09;1.60;;;1.08;;
30287;SDS011;17103;48.316;11.558;2024-03-23T13:14:40;4.30;;;1.20;;
30287;SDS011;17103;48.316;11.558;2024-03-23T13:17:06;7.15;;;2.08;;
30287;SDS011;17103;48.316;11.558;2024-03-23T13:19:33;7.38;;;3.15;;
30287;SDS011;17103;48.316;11.558;2024-03-23T13:22:02;5.43;;;1.95;;
30287;SDS011;17103;48.316;11.558;2024-03-23T13:24:29;4.88;;;1.55;;
30287;SDS011;17103;48.316;11.558;2024-03-23T13:26:58;4.32;;;2.03;;
30287;SDS011;17103;48.316;11.558;2024-03-23T13:29:24;3.92;;;1.50;;
30287;SDS011;17103;48.316;11.558;2024-03-23T13:35:01;2.88;;;1.60;;
30287;SDS011;17103;48.316;11.558;2024-03-23T13:37:32;4.18;;;1.58;;
30287;SDS011;17103;48.316;11.558;2024-03-23T13:39:59;3.05;;;1.27;;
30287;SDS011;17103;48.316;11.558;2024-03-23T13:42:26;5.45;;;2.63;;
30287;SDS011;17103;48.316;11.558;2024-03-23T13:44:52;4.43;;;2.10;;
30287;SDS011;17103;48.316;11.558;2024-03-23T13:47:17;6.82;;;1.67;;
30287;SDS011;17103;48.316;11.558;2024-03-23T13:49:45;3.55;;;1.42;;
30287;SDS011;17103;48.316;11.558;2024-03-23T13:52:14;4.30;;;1.85;;
30287;SDS011;17103;48.316;11.558;2024-03-23T13:54:40;4.28;;;1.60;;
30287;SDS011;17103;48.316;11.558;2024-03-23T13:57:11;4.85;;;1.75;;
30287;SDS011;17103;48.316;11.558;2024-03-23T13:59:37;5.25;;;1.77;;
30287;SDS011;17103;48.316;11.558;2024-03-23T14:02:03;6.90;;;2.90;;
30287;SDS011;17103;48.316;11.558;2024-03-23T14:04:32;5.82;;;2.42;;
30287;SDS011;17103;48.316;11.558;2024-03-23T14:13:48;3.35;;;1.63;;
30287;SDS011;17103;48.316;11.558;2024-03-23T14:16:13;3.33;;;1.63;;
30287;SDS011;17103;48.316;11.558;2024-03-23T14:18:39;2.92;;;1.60;;
30287;SDS011;17103;48.316;11.558;2024-03-23T14:21:05;3.58;;;1.65;;
30287;SDS011;17103;48.316;11.558;2024-03-23T14:23:32;6.57;;;2.05;;
30287;SDS011;17103;48.316;11.558;2024-03-23T14:26:00;2.97;;;1.17;;
30287;SDS011;17103;48.316;11.558;2024-03-23T14:28:26;3.30;;;1.45;;
30287;SDS011;17103;48.316;11.558;2024-03-23T14:30:54;3.85;;;0.93;;
30287;SDS011;17103;48.316;11.558;2024-03-23T14:33:21;2.95;;;1.10;;
30287;SDS011;17103;48.316;11.558;2024-03-23T14:35:53;4.55;;;1.30;;
30287;SDS011;17103;48.316;11.558;2024-03-23T14:45:32;4.10;;;1.58;;
30287;SDS011;17103;48.316;11.558;2024-03-23T14:47:57;3.88;;;1.30;;
30287;SDS011;17103;48.316;11.558;2024-03-23T14:50:24;17.92;;;9.85;;
30287;SDS011;17103;48.316;11.558;2024-03-23T14:52:54;14.48;;;8.90;;
30287;SDS011;17103;48.316;11.558;2024-03-23T14:55:20;6.90;;;2.92;;
30287;SDS011;17103;48.316;11.558;2024-03-23T14:57:45;25.23;;;12.48;;
30287;SDS011;17103;48.316;11.558;2024-03-23T15:00:11;11.50;;;4.68;;
30287;SDS011;17103;48.316;11.558;2024-03-23T15:02:37;21.27;;;13.45;;
30287;SDS011;17103;48.316;11.558;2024-03-23T15:05:04;10.45;;;6.55;;
30287;SDS011;17103;48.316;11.558;2024-03-23T15:07:33;9.25;;;5.47;;
30287;SDS011;17103;48.316;11.558;2024-03-23T15:10:00;5.60;;;4.97;;
30287;SDS011;17103;48.316;11.558;2024-03-23T15:12:26;5.57;;;1.95;;
30287;SDS011;17103;48.316;11.558;2024-03-23T15:14:51;4.57;;;2.40;;
30287;SDS011;17103;48.316;11.558;2024-03-23T15:17:17;4.00;;;1.23;;
30287;SDS011;17103;48.316;11.558;2024-03-23T15:19:44;1.38;;;0.68;;
30287;SDS011;17103;48.316;11.558;2024-03-23T15:22:12;2.70;;;0.65;;
30287;SDS011;17103;48.316;11.558;2024-03-23T15:24:41;2.03;;;0.63;;
30287;SDS011;17103;48.316;11.558;2024-03-23T15:27:07;4.35;;;0.90;;
30287;SDS011;17103;48.316;11.558;2024-03-23T15:29:34;3.55;;;1.13;;
30287;SDS011;17103;48.316;11.558;2024-03-23T15:32:01;3.90;;;1.63;;
30287;SDS011;17103;48.316;11.558;2024-03-23T15:34:28;5.60;;;1.77;;
30287;SDS011;17103;48.316;11.558;2024-03-23T15:36:54;2.63;;;1.38;;
30287;SDS011;17103;48.316;11.558;2024-03-23T15:39:21;3.33;;;1.35;;
30287;SDS011;17103;48.316;11.558;2024-03-23T15:41:47;3.30;;;1.15;;
30287;SDS011;17103;48.316;11.558;2024-03-23T15:44:13;4.50;;;1.20;;
30287;SDS011;17103;48.316;11.558;2024-03-23T15:46:39;3.65;;;1.42;;
30287;SDS011;17103;48.316;11.558;2024-03-23T15:49:05;6.43;;;1.08;;
30287;SDS011;17103;48.316;11.558;2024-03-23T15:51:31;3.22;;;1.05;;
30287;SDS011;17103;48.316;11.558;2024-03-23T15:54:03;3.13;;;1.55;;
30287;SDS011;17103;48.316;11.558;2024-03-23T15:56:29;5.20;;;3.25;;
30287;SDS011;17103;48.316;11.558;2024-03-23T15:58:55;4.40;;;1.77;;
30287;SDS011;17103;48.316;11.558;2024-03-23T16:01:26;5.15;;;2.25;;
30287;SDS011;17103;48.316;11.558;2024-03-23T16:03:51;3.78;;;2.20;;
30287;SDS011;17103;48.316;11.558;2024-03-23T16:06:17;3.85;;;1.13;;
30287;SDS011;17103;48.316;11.558;2024-03-23T16:08:43;9.57;;;1.25;;
30287;SDS011;17103;48.316;11.558;2024-03-23T16:11:09;2.33;;;0.82;;